Time;durP1;ratioP1;P1;durP2;ratioP2;P2;SDS_P1;SDS_P2;PMS_P1;PMS_P2;Temp;Humidity;BMP_temperature;BMP_pressure;BME280_temperature;BME280_humidity;BME280_pressure;Samples;Min_cycle;Max_cycle;Signal;HPM_P1;HPM_P2
2022/09/02 00:01:27;;;;;;;;;9.00;8.80;;;;;23.97;37.94;100917.59;4976777;28;45281;-62
2022/09/02 00:03:58;;;;;;;;;9.40;7.80;;;;;23.97;37.85;100906.75;4978003;28;45543;-62
2022/09/02 00:06:25;;;;;;;;;8.60;8.40;;;;;24.00;38.00;100905.47;4976336;28;45273;-62
2022/09/02 00:08:50;;;;;;;;;8.60;7.40;;;;;23.97;38.45;100904.03;4975308;28;45496;-62
2022/09/02 00:11:20;;;;;;;;;8.00;7.00;;;;;24.00;38.27;100906.28;4976698;28;45376;-62
2022/09/02 00:13:46;;;;;;;;;8.80;8.80;;;;;23.99;38.34;100901.91;4975080;28;47228;-60
2022/09/02 00:16:12;;;;;;;;;13.00;9.00;;;;;23.95;38.36;100902.63;4976380;28;45260;-61
2022/09/02 00:18:39;;;;;;;;;10.40;9.00;;;;;23.95;38.59;100897.19;4976686;28;45274;-65
2022/09/02 00:21:04;;;;;;;;;8.60;8.60;;;;;23.81;38.26;100872.94;4975288;28;45410;-48
2022/09/02 00:23:31;;;;;;;;;7.25;7.25;;;;;23.84;38.58;100877.06;4976076;28;46091;-53
2022/09/02 00:25:57;;;;;;;;;13.60;9.40;;;;;23.89;38.37;100882.63;4976382;28;45255;-59
2022/09/02 00:28:23;;;;;;;;;7.60;7.60;;;;;23.85;38.74;100873.25;4976292;28;45376;-56
2022/09/02 00:30:48;;;;;;;;;10.75;9.00;;;;;23.81;38.83;100874.81;4976686;28;45357;-57
2022/09/02 00:33:14;;;;;;;;;9.75;7.25;;;;;23.27;38.89;100793.22;4976518;28;45449;-58
2022/09/02 00:35:40;;;;;;;;;10.50;9.50;;;;;23.70;38.92;100876.41;4976111;28;45210;-64
2022/09/02 00:38:07;;;;;;;;;8.00;8.00;;;;;23.67;38.84;100866.00;4976741;28;45452;-60
2022/09/02 00:40:33;;;;;;;;;8.00;8.00;;;;;23.64;39.05;100872.72;4976605;28;45398;-64
2022/09/02 00:42:59;;;;;;;;;9.80;9.80;;;;;23.59;39.16;100866.28;4976252;28;46872;-65
2022/09/02 00:45:25;;;;;;;;;10.50;10.00;;;;;23.49;39.56;100855.16;4976200;28;45384;-64
2022/09/02 00:47:50;;;;;;;;;8.00;8.00;;;;;23.49;39.33;100869.56;4975975;28;45399;-64
2022/09/02 00:50:21;;;;;;;;;10.00;9.00;;;;;23.46;39.58;100878.16;4976348;28;45495;-61
2022/09/02 00:52:55;;;;;;;;;7.20;7.20;;;;;23.40;39.48;100873.66;4975578;28;46071;-62
2022/09/02 00:55:26;;;;;;;;;7.40;7.40;;;;;23.36;39.68;100869.75;4975818;28;45304;-58
2022/09/02 00:57:58;;;;;;;;;9.80;9.00;;;;;23.34;39.75;100867.25;4976093;28;45293;-59
2022/09/02 01:00:27;;;;;;;;;9.25;8.25;;;;;23.31;39.70;100865.00;4976175;28;45188;-62
2022/09/02 01:02:57;;;;;;;;;9.20;9.20;;;;;23.28;40.11;100867.34;4975541;28;47124;-57
2022/09/02 01:05:28;;;;;;;;;8.80;8.80;;;;;23.19;40.33;100861.38;4975921;28;45363;-62
2022/09/02 01:07:54;;;;;;;;;10.80;9.00;;;;;23.22;40.25;100866.38;4975104;28;45455;-60
2022/09/02 01:10:23;;;;;;;;;9.25;8.00;;;;;23.19;40.42;100874.13;4975178;28;45408;-61
2022/09/02 01:12:54;;;;;;;;;8.75;8.00;;;;;23.10;40.47;100851.91;4975340;28;46903;-60
2022/09/02 01:15:19;;;;;;;;;10.00;6.60;;;;;23.13;40.75;100860.41;4975535;28;45348;-62
2022/09/02 01:17:48;;;;;;;;;10.00;9.25;;;;;23.14;40.76;100863.94;4975840;28;45356;-60
2022/09/02 01:20:16;;;;;;;;;8.00;8.00;;;;;23.06;40.83;100856.94;4976057;28;45298;-62
2022/09/02 01:22:42;;;;;;;;;8.60;8.00;;;;;23.03;40.85;100854.66;4975313;28;46133;-63
2022/09/02 01:25:15;;;;;;;;;13.75;10.75;;;;;22.94;40.89;100847.06;4975544;28;45382;-62
2022/09/02 01:27:41;;;;;;;;;8.60;8.00;;;;;22.97;41.33;100852.88;4975619;28;45260;-51
2022/09/02 01:30:10;;;;;;;;;10.00;8.50;;;;;22.95;40.91;100854.97;4975588;28;45487;-54
2022/09/02 01:32:35;;;;;;;;;8.75;8.50;;;;;22.94;41.15;100864.16;4975269;28;45503;-58
2022/09/02 01:35:00;;;;;;;;;9.00;8.25;;;;;22.89;41.56;100859.38;4975527;28;45265;-57
2022/09/02 01:37:26;;;;;;;;;10.50;9.00;;;;;22.91;41.33;100860.00;4975042;28;45456;-63
2022/09/02 01:39:52;;;;;;;;;8.25;8.25;;;;;22.82;41.26;100834.22;4975658;28;45301;-61
2022/09/02 01:42:19;;;;;;;;;9.50;7.00;;;;;22.99;41.12;100860.78;4975527;28;45284;-53
2022/09/02 01:44:44;;;;;;;;;8.60;8.40;;;;;23.01;41.16;100854.09;4975142;28;45458;-65
2022/09/02 01:47:15;;;;;;;;;9.25;9.00;;;;;23.05;41.25;100854.44;4975359;28;46042;-54
2022/09/02 01:49:41;;;;;;;;;10.00;8.00;;;;;23.07;41.39;100852.34;4975431;28;45441;-55
2022/09/02 01:52:07;;;;;;;;;11.00;9.00;;;;;23.08;41.38;100848.56;4974897;28;47546;-54
2022/09/02 01:54:33;;;;;;;;;8.80;8.80;;;;;23.08;41.29;100843.97;4975239;28;45284;-62
2022/09/02 01:56:59;;;;;;;;;8.00;8.00;;;;;23.06;41.45;100842.56;4973770;28;45395;-62
2022/09/02 01:59:24;;;;;;;;;10.00;10.00;;;;;23.09;41.75;100834.78;4975445;28;45313;-49
2022/09/02 02:01:50;;;;;;;;;12.50;10.50;;;;;23.09;41.52;100836.66;4975077;28;45354;-61
2022/09/02 02:04:15;;;;;;;;;10.25;8.25;;;;;23.01;41.60;100826.13;4974784;28;45453;-45
2022/09/02 02:06:47;;;;;;;;;10.00;10.00;;;;;23.10;41.58;100843.75;4975168;28;45411;-63
2022/09/02 02:09:13;;;;;;;;;10.75;8.00;;;;;23.05;41.23;100881.56;4975151;28;45477;-62
2022/09/02 02:11:39;;;;;;;;;10.00;8.40;;;;;23.02;42.21;100895.59;4974582;28;46133;-56
2022/09/02 02:14:05;;;;;;;;;7.00;7.00;;;;;23.01;42.28;100854.09;4975046;28;45358;-55
2022/09/02 02:16:30;;;;;;;;;6.75;6.75;;;;;23.08;42.01;100908.25;4974876;28;45308;-44
2022/09/02 02:18:56;;;;;;;;;11.00;10.00;;;;;23.10;42.03;100898.84;4975078;28;45326;-46
2022/09/02 02:21:22;;;;;;;;;11.50;11.50;;;;;23.12;42.09;100855.19;4974088;28;46201;-59
2022/09/02 02:23:48;;;;;;;;;10.50;9.00;;;;;23.13;41.75;100871.28;4974653;28;45341;-61
2022/09/02 02:26:13;;;;;;;;;9.25;8.75;;;;;23.18;41.74;100919.44;4974932;28;45456;-57
2022/09/02 02:28:38;;;;;;;;;12.00;9.25;;;;;23.20;41.59;100892.88;4974893;28;45323;-54
2022/09/02 02:31:04;;;;;;;;;9.50;9.50;;;;;23.08;41.19;100860.25;4974591;28;47370;-63
2022/09/02 02:33:30;;;;;;;;;11.00;9.00;;;;;23.20;41.53;100900.19;4974638;28;45614;-57
2022/09/02 02:35:56;;;;;;;;;9.60;9.40;;;;;23.21;41.70;100877.44;4973469;28;45285;-48
2022/09/02 02:38:22;;;;;;;;;10.00;9.00;;;;;23.21;41.63;100883.69;4974538;28;45446;-62
2022/09/02 02:40:47;;;;;;;;;11.25;10.00;;;;;23.04;41.60;100860.91;4974220;28;47094;-48
2022/09/02 02:43:13;;;;;;;;;7.25;7.25;;;;;23.20;41.62;100875.78;4974669;28;45181;-44
2022/09/02 02:45:38;;;;;;;;;10.50;10.50;;;;;23.16;41.59;100870.78;4974497;28;45895;-44
2022/09/02 02:48:05;;;;;;;;;10.00;10.00;;;;;23.13;41.36;100863.13;4974535;28;45295;-48
2022/09/02 02:50:30;;;;;;;;;10.00;10.00;;;;;23.06;41.56;100856.94;4974589;28;45307;-49
2022/09/02 02:52:55;;;;;;;;;9.75;8.50;;;;;23.06;41.20;100870.50;4975266;28;45338;-56
2022/09/02 02:55:22;;;;;;;;;10.50;9.50;;;;;23.07;41.80;100877.59;4975390;28;45415;-47
2022/09/02 02:57:49;;;;;;;;;8.75;8.75;;;;;23.03;41.97;100868.22;4974685;28;45404;-57
2022/09/02 03:00:19;;;;;;;;;9.25;9.25;;;;;23.06;42.02;100862.38;4975087;28;45405;-51
2022/09/02 03:02:44;;;;;;;;;9.00;9.00;;;;;23.08;42.19;100864.84;4979800;28;45222;-48
2022/09/02 03:05:11;;;;;;;;;8.75;8.75;;;;;23.06;42.17;100853.41;4978306;28;45295;-46
2022/09/02 03:07:37;;;;;;;;;9.75;9.75;;;;;23.08;41.99;100856.69;4975174;28;45356;-49
2022/09/02 03:10:07;;;;;;;;;10.50;9.75;;;;;23.00;41.85;100841.56;4974220;28;46101;-47
2022/09/02 03:12:32;;;;;;;;;10.40;9.80;;;;;23.07;42.02;100844.19;4974142;28;45413;-43
2022/09/02 03:14:58;;;;;;;;;8.00;8.00;;;;;23.13;41.97;100846.00;4974574;28;45206;-48
2022/09/02 03:17:24;;;;;;;;;10.50;9.25;;;;;23.13;41.93;100846.00;4975993;28;45445;-45
2022/09/02 03:19:49;;;;;;;;;12.00;9.25;;;;;23.12;41.75;100845.16;4974779;28;47010;-47
2022/09/02 03:22:15;;;;;;;;;11.75;11.75;;;;;23.12;42.07;100853.31;4974867;28;45383;-44
2022/09/02 03:24:41;;;;;;;;;14.20;12.60;;;;;23.10;42.09;100850.00;4974106;28;45449;-58
2022/09/02 03:27:06;;;;;;;;;19.25;16.00;;;;;23.08;42.56;100848.56;4974537;28;45265;-57
2022/09/02 03:29:32;;;;;;;;;18.00;15.75;;;;;23.05;42.21;100838.16;4973775;28;45345;-52
2022/09/02 03:31:57;;;;;;;;;20.00;17.50;;;;;23.01;42.17;100837.81;4975027;28;45355;-57
2022/09/02 03:34:23;;;;;;;;;25.75;23.00;;;;;22.99;42.23;100847.22;4977188;28;45844;-56
2022/09/02 03:36:48;;;;;;;;;28.25;26.00;;;;;22.86;42.67;100831.88;4976987;28;45454;-49
2022/09/02 03:39:14;;;;;;;;;24.75;24.00;;;;;22.89;42.46;100839.56;4976611;28;47127;-45
2022/09/02 03:41:40;;;;;;;;;32.67;26.33;;;;;22.89;42.58;100847.72;4976599;28;45368;-54
2022/09/02 03:44:06;;;;;;;;;31.75;28.50;;;;;22.89;42.85;100837.69;4976793;28;45283;-48
2022/09/02 03:46:31;;;;;;;;;26.50;24.50;;;;;22.86;42.76;100837.31;4977093;28;45274;-53
2022/09/02 03:48:56;;;;;;;;;29.75;23.00;;;;;22.83;42.89;100829.63;4976446;28;45382;-44
2022/09/02 03:51:24;;;;;;;;;26.00;23.00;;;;;22.78;43.60;100830.28;4976802;28;45301;-53
2022/09/02 03:53:50;;;;;;;;;22.25;20.00;;;;;22.75;43.88;100829.91;4976508;28;45352;-51
2022/09/02 03:56:17;;;;;;;;;22.00;20.00;;;;;22.71;44.35;100823.28;4978215;28;45373;-46
2022/09/02 03:58:44;;;;;;;;;19.25;15.75;;;;;22.63;44.87;100811.69;4976624;28;45355;-53
2022/09/02 04:01:19;;;;;;;;;21.75;19.50;;;;;22.62;44.52;100815.44;4976403;28;45339;-46
2022/09/02 04:03:45;;;;;;;;;21.75;17.25;;;;;22.52;45.56;100798.03;4976577;28;45181;-43
2022/09/02 04:06:13;;;;;;;;;19.75;17.75;;;;;22.55;45.11;100811.97;4976502;28;45494;-45
2022/09/02 04:08:40;;;;;;;;;19.00;17.50;;;;;22.52;45.62;100814.31;4976174;28;46737;-49
2022/09/02 04:11:08;;;;;;;;;12.25;12.00;;;;;22.10;45.43;100749.00;4976506;28;45392;-51
2022/09/02 04:13:34;;;;;;;;;16.50;16.00;;;;;22.48;46.19;100818.50;4976761;28;45327;-44
2022/09/02 04:16:08;;;;;;;;;20.75;16.50;;;;;22.45;46.63;100817.06;4976544;28;45351;-44
2022/09/02 04:18:33;;;;;;;;;16.25;14.50;;;;;22.45;47.01;100816.25;4976330;28;46181;-55
2022/09/02 04:21:00;;;;;;;;;12.50;12.50;;;;;22.44;47.60;100826.25;4976510;28;45477;-45
2022/09/02 04:23:27;;;;;;;;;13.25;12.00;;;;;22.44;48.02;100831.69;4974899;28;45375;-45
2022/09/02 04:25:52;;;;;;;;;12.00;11.50;;;;;22.44;48.24;100825.44;4976520;28;45517;-45
2022/09/02 04:28:18;;;;;;;;;13.75;11.75;;;;;22.43;48.51;100824.59;4975763;28;46060;-44
2022/09/02 04:30:43;;;;;;;;;12.00;11.25;;;;;22.40;49.07;100825.88;4976188;28;45375;-62
2022/09/02 04:33:10;;;;;;;;;11.25;10.75;;;;;22.38;47.81;100825.28;4976536;28;45273;-62
2022/09/02 04:35:40;;;;;;;;;13.25;11.25;;;;;22.33;48.88;100824.25;4976414;28;45371;-63
2022/09/02 04:38:05;;;;;;;;;14.75;11.25;;;;;22.31;49.26;100820.97;4975922;28;45712;-47
2022/09/02 04:40:30;;;;;;;;;12.50;10.50;;;;;22.29;49.65;100817.63;4975914;28;45411;-62
2022/09/02 04:42:56;;;;;;;;;12.00;11.00;;;;;22.29;49.84;100812.22;4975680;28;45453;-62
2022/09/02 04:45:21;;;;;;;;;11.25;11.00;;;;;22.29;50.09;100807.66;4976223;28;45339;-61
2022/09/02 04:47:47;;;;;;;;;14.75;10.75;;;;;22.29;49.82;100813.06;4975541;28;46037;-59
2022/09/02 04:50:12;;;;;;;;;10.00;8.50;;;;;22.28;49.47;100816.81;4975764;28;45523;-59
2022/09/02 04:52:38;;;;;;;;;10.75;9.50;;;;;22.29;50.21;100817.63;4975857;28;45400;-59
2022/09/02 04:55:05;;;;;;;;;11.00;9.75;;;;;22.33;50.35;100818.84;4975921;28;45317;-63
2022/09/02 04:57:31;;;;;;;;;12.50;12.50;;;;;22.33;50.01;100819.69;4977260;28;46095;-64
2022/09/02 04:59:57;;;;;;;;;14.25;11.25;;;;;22.32;50.68;100823.44;4977292;28;45345;-55
2022/09/02 05:02:22;;;;;;;;;15.50;10.25;;;;;22.31;52.17;100820.97;4976133;28;45284;-55
2022/09/02 05:04:48;;;;;;;;;10.00;10.00;;;;;22.28;52.37;100826.81;4975917;28;45322;-62
2022/09/02 05:07:14;;;;;;;;;9.75;9.75;;;;;22.24;52.78;100826.44;4975481;28;45261;-56
2022/09/02 05:09:40;;;;;;;;;14.20;12.40;;;;;22.20;53.98;100814.38;4975448;28;45472;-60
2022/09/02 05:12:07;;;;;;;;;13.75;13.00;;;;;22.03;54.73;100786.16;4975682;28;45493;-57
2022/09/02 05:14:33;;;;;;;;;14.50;12.75;;;;;22.07;54.67;100800.91;4975939;28;45292;-59
2022/09/02 05:16:59;;;;;;;;;16.50;13.50;;;;;22.01;54.82;100802.63;4975613;28;45808;-55
2022/09/02 05:19:25;;;;;;;;;15.25;12.75;;;;;21.88;54.92;100802.72;4975366;28;45248;-49
2022/09/02 05:21:54;;;;;;;;;12.00;12.00;;;;;21.89;53.63;100807.09;4975865;28;45351;-57
2022/09/02 05:24:20;;;;;;;;;8.00;8.00;;;;;21.83;54.14;100816.13;4975642;28;45351;-55
2022/09/02 05:26:45;;;;;;;;;15.25;11.00;;;;;21.81;53.79;100813.59;4975164;28;46281;-66
2022/09/02 05:29:12;;;;;;;;;13.75;11.50;;;;;21.78;54.08;100818.63;4975519;28;45319;-65
2022/09/02 05:31:40;;;;;;;;;13.00;13.00;;;;;21.76;53.45;100815.31;4975836;28;45339;-64
2022/09/02 05:34:06;;;;;;;;;12.00;12.00;;;;;21.62;52.84;100806.47;4975863;28;45445;-61
2022/09/02 05:36:32;;;;;;;;;13.25;12.75;;;;;21.58;52.40;100803.34;4975060;28;46107;-51
2022/09/02 05:38:58;;;;;;;;;12.75;10.50;;;;;21.67;52.83;100831.81;4974838;28;45469;-57
2022/09/02 05:41:25;;;;;;;;;11.75;10.50;;;;;21.65;52.62;100823.06;4975726;28;45322;-60
2022/09/02 05:43:54;;;;;;;;;11.00;10.00;;;;;21.64;51.94;100817.88;4975450;28;45405;-66
2022/09/02 05:46:22;;;;;;;;;11.25;11.25;;;;;21.62;51.86;100815.41;4976520;28;45340;-63
2022/09/02 05:49:07;;;;;;;;;13.75;12.00;;;;;21.60;51.22;100809.38;4975064;28;45391;-62
2022/09/02 05:51:33;;;;;;;;;12.50;11.50;;;;;21.58;51.91;100810.66;4975247;28;45379;-59
2022/09/02 05:54:00;;;;;;;;;13.75;13.75;;;;;21.56;52.27;100813.56;4975796;28;45437;-47
2022/09/02 05:56:26;;;;;;;;;12.50;11.00;;;;;21.52;51.77;100806.09;4974654;28;45538;-60
2022/09/02 05:58:55;;;;;;;;;14.25;12.75;;;;;21.50;52.47;100797.38;4976336;28;45289;-63
2022/09/02 06:01:20;;;;;;;;;14.00;13.00;;;;;21.53;51.88;100805.03;4975157;28;45650;-58
2022/09/02 06:03:46;;;;;;;;;13.00;11.00;;;;;21.51;51.73;100810.66;4975381;28;45393;-65
2022/09/02 06:06:11;;;;;;;;;13.50;12.00;;;;;21.51;51.82;100807.13;4974660;28;46050;-48
2022/09/02 06:08:37;;;;;;;;;14.50;11.75;;;;;21.49;51.08;100823.59;4974969;28;45386;-51
2022/09/02 06:11:05;;;;;;;;;12.00;10.50;;;;;21.46;51.66;100807.78;4974842;28;45442;-65
2022/09/02 06:13:34;;;;;;;;;14.00;12.50;;;;;21.42;51.98;100828.22;4975174;28;45498;-50
2022/09/02 06:16:00;;;;;;;;;16.25;15.00;;;;;21.39;51.24;100823.22;4974770;28;47190;-51
2022/09/02 06:18:26;;;;;;;;;14.50;12.75;;;;;21.32;52.15;100806.19;4974999;28;45347;-51
2022/09/02 06:20:52;;;;;;;;;15.75;13.50;;;;;21.38;51.44;100818.88;4974817;28;45346;-50
2022/09/02 06:23:17;;;;;;;;;14.50;12.75;;;;;21.38;51.84;100818.88;4975078;27;45307;-50
2022/09/02 06:25:44;;;;;;;;;15.25;14.00;;;;;21.36;52.01;100819.09;4974609;28;46250;-56
2022/09/02 06:28:11;;;;;;;;;15.00;13.00;;;;;21.39;52.15;100824.06;4974605;28;45437;-51
2022/09/02 06:30:44;;;;;;;;;19.00;13.25;;;;;21.41;51.28;100810.31;4974496;28;45240;-47
2022/09/02 06:33:10;;;;;;;;;14.50;11.00;;;;;21.47;52.31;100809.44;4974732;28;45287;-46
2022/09/02 06:35:38;;;;;;;;;16.00;12.75;;;;;21.49;52.24;100801.97;4974646;28;45367;-44
2022/09/02 06:38:04;;;;;;;;;12.75;12.75;;;;;21.47;50.85;100795.91;4974330;28;46254;-45
2022/09/02 06:40:30;;;;;;;;;13.25;11.50;;;;;21.43;51.48;100797.41;4974551;28;46124;-48
2022/09/02 06:42:55;;;;;;;;;16.00;16.00;;;;;21.43;51.58;100797.41;4974789;28;45139;-51
2022/09/02 06:45:23;;;;;;;;;13.50;12.25;;;;;21.50;51.79;100809.03;4974221;28;45430;-47
2022/09/02 06:47:49;;;;;;;;;12.00;12.00;;;;;21.59;51.00;100807.72;4974268;28;45809;-53
2022/09/02 06:50:14;;;;;;;;;14.00;13.50;;;;;21.65;51.04;100812.25;4974954;28;45339;-50
2022/09/02 06:52:40;;;;;;;;;12.00;11.50;;;;;21.73;50.23;100803.03;4974802;28;45465;-63
2022/09/02 06:55:06;;;;;;;;;18.00;15.25;;;;;21.79;50.11;100796.75;4974389;28;45319;-55
2022/09/02 06:57:32;;;;;;;;;12.00;11.75;;;;;21.94;49.80;100804.56;4974322;28;45212;-45
2022/09/02 06:59:58;;;;;;;;;13.50;11.50;;;;;22.09;49.45;100809.66;4974400;28;45275;-50
2022/09/02 07:02:23;;;;;;;;;13.50;13.50;;;;;22.26;49.05;100812.69;4973913;28;45436;-46
2022/09/02 07:07:38;;;;;;;;;12.00;12.00;;;;;22.69;48.22;100801.81;4976741;28;45350;-48
2022/09/02 07:10:06;;;;;;;;;11.75;10.50;;;;;22.91;47.75;100804.94;4976969;28;45319;-48
2022/09/02 07:12:33;;;;;;;;;13.75;11.75;;;;;23.01;47.34;100801.72;4977404;28;45280;-58
2022/09/02 07:14:59;;;;;;;;;14.75;12.50;;;;;23.09;46.85;100802.22;4977102;28;46906;-46
2022/09/02 07:17:24;;;;;;;;;15.75;13.00;;;;;22.98;46.83;100802.16;4977066;28;45264;-60
2022/09/02 07:19:50;;;;;;;;;11.00;11.00;;;;;22.77;47.23;100812.38;4977112;28;45248;-46
2022/09/02 07:22:16;;;;;;;;;13.25;10.25;;;;;22.65;47.44;100803.31;4977345;28;45454;-46
2022/09/02 07:24:42;;;;;;;;;10.00;10.00;;;;;22.41;47.48;100781.44;4976762;28;46108;-47
2022/09/02 07:27:08;;;;;;;;;12.00;11.00;;;;;22.41;47.37;100775.19;4976702;28;45641;-61
2022/09/02 07:29:34;;;;;;;;;9.25;7.00;;;;;22.42;47.54;100791.25;4976923;28;45427;-45
2022/09/02 07:31:59;;;;;;;;;11.25;10.00;;;;;22.42;47.40;100766.84;4977212;28;45409;-46
2022/09/02 07:34:25;;;;;;;;;12.50;11.25;;;;;22.49;46.75;100771.38;4976734;28;46160;-51
2022/09/02 07:36:51;;;;;;;;;10.50;10.25;;;;;22.67;46.65;100783.06;4976822;28;45288;-44
2022/09/02 07:39:18;;;;;;;;;4.00;1.00;;;;;22.76;46.61;100780.88;4976634;28;45332;-44
2022/09/02 07:41:46;;;;;;;;;11.50;11.00;;;;;22.86;46.51;100785.78;4976811;28;45190;-53
2022/09/02 07:44:13;;;;;;;;;10.25;10.25;;;;;22.94;46.35;100793.63;4976516;28;46306;-45
2022/09/02 07:46:38;;;;;;;;;12.20;10.20;;;;;23.04;45.59;100788.50;4976504;28;45330;-44
2022/09/02 07:49:08;;;;;;;;;16.25;11.75;;;;;22.73;45.46;100721.66;4975360;28;45479;-46
2022/09/02 07:51:35;;;;;;;;;10.00;10.00;;;;;23.19;45.24;100793.53;4975999;28;45363;-46
2022/09/02 07:54:02;;;;;;;;;11.50;9.75;;;;;23.24;44.95;100795.56;4976529;28;45444;-46
2022/09/02 07:56:28;;;;;;;;;11.20;11.20;;;;;23.29;44.69;100788.38;4976111;28;45477;-44
2022/09/02 07:58:53;;;;;;;;;14.75;12.50;;;;;23.30;44.56;100789.19;4976463;28;45330;-48
2022/09/02 08:01:19;;;;;;;;;10.25;8.75;;;;;23.31;44.07;100790.88;4976749;28;45465;-50
2022/09/02 08:03:45;;;;;;;;;10.75;9.00;;;;;23.31;44.06;100783.56;4976350;28;46198;-46
2022/09/02 08:06:12;;;;;;;;;12.75;11.25;;;;;23.28;43.92;100800.31;4976421;28;45326;-51
2022/09/02 08:08:38;;;;;;;;;13.00;12.00;;;;;23.18;44.32;100800.03;4976398;28;45149;-44
2022/09/02 08:11:05;;;;;;;;;10.75;10.50;;;;;23.12;44.38;100814.50;4975901;28;45438;-51
2022/09/02 08:13:32;;;;;;;;;16.00;10.75;;;;;23.07;44.87;100814.34;4974537;28;46352;-46
2022/09/02 08:15:57;;;;;;;;;12.25;10.00;;;;;23.02;44.34;100817.75;4975812;28;45433;-58
2022/09/02 08:18:23;;;;;;;;;9.50;9.50;;;;;22.98;44.59;100823.84;4975863;28;45244;-45
2022/09/02 08:20:49;;;;;;;;;10.00;10.00;;;;;22.90;44.35;100828.53;4975811;28;45434;-46
2022/09/02 08:23:16;;;;;;;;;13.00;10.00;;;;;22.93;44.46;100819.13;4974649;28;46090;-59
2022/09/02 08:25:42;;;;;;;;;13.20;10.40;;;;;22.85;44.28;100817.50;4974891;28;45373;-50
2022/09/02 08:28:07;;;;;;;;;11.00;10.50;;;;;22.74;44.54;100801.97;4974803;28;45548;-48
2022/09/02 08:30:33;;;;;;;;;10.75;10.75;;;;;22.74;44.74;100810.09;4975158;28;45415;-49
2022/09/02 08:32:59;;;;;;;;;11.75;10.00;;;;;22.83;44.81;100835.03;4974469;28;46084;-47
2022/09/02 08:35:24;;;;;;;;;10.20;10.00;;;;;22.80;44.76;100844.47;4974450;28;45341;-45
2022/09/02 08:37:50;;;;;;;;;10.25;9.75;;;;;22.79;45.19;100861.78;4974840;28;45379;-44
2022/09/02 08:40:19;;;;;;;;;12.00;11.00;;;;;22.77;45.36;100863.06;4974875;28;45508;-47
2022/09/02 08:42:50;;;;;;;;;11.50;9.50;;;;;22.90;46.23;100890.91;4974418;28;45975;-51
2022/09/02 08:45:30;;;;;;;;;9.00;8.60;;;;;22.94;45.06;100885.88;4974676;28;45477;-56
2022/09/02 08:48:32;;;;;;;;;14.25;11.25;;;;;22.91;44.99;100873.56;4974596;28;45393;-46
2022/09/02 08:51:06;;;;;;;;;13.75;12.00;;;;;22.86;45.47;100884.25;4974875;28;45456;-56
2022/09/02 08:53:45;;;;;;;;;16.50;13.50;;;;;22.91;45.72;100891.75;4974325;28;45481;-55
2022/09/02 08:56:14;;;;;;;;;11.60;10.00;;;;;22.95;45.87;100887.53;4974100;28;45468;-53
2022/09/02 08:58:43;;;;;;;;;13.20;11.80;;;;;22.93;46.22;100872.53;4974408;28;45420;-56
2022/09/02 09:01:23;;;;;;;;;14.00;11.75;;;;;23.14;46.23;100878.34;4974916;28;45492;-56
2022/09/02 09:04:12;;;;;;;;;11.50;11.50;;;;;23.33;46.61;100876.44;4974312;28;46274;-59
2022/09/02 09:06:47;;;;;;;;;13.20;12.60;;;;;23.49;46.59;100877.72;4974331;28;45426;-58
2022/09/02 09:09:25;;;;;;;;;12.80;11.60;;;;;23.64;46.38;100880.84;4974108;28;45433;-51
2022/09/02 09:12:14;;;;;;;;;14.00;12.75;;;;;23.70;46.09;100881.84;4974592;28;45498;-54
2022/09/02 09:14:53;;;;;;;;;13.75;12.50;;;;;23.76;45.94;100871.94;4973970;28;45428;-61
2022/09/02 09:17:57;;;;;;;;;15.00;14.00;;;;;23.87;46.12;100874.72;4974194;28;45414;-55
2022/09/02 09:20:33;;;;;;;;;12.40;12.00;;;;;23.94;45.97;100861.03;4974108;28;45545;-57
2022/09/02 09:23:04;;;;;;;;;14.75;13.25;;;;;24.07;46.09;100868.97;4974438;28;45850;-45
2022/09/02 09:25:30;;;;;;;;;15.00;13.25;;;;;24.14;45.93;100864.28;4974238;28;46162;-60
2022/09/02 09:28:00;;;;;;;;;13.20;11.60;;;;;24.31;45.61;100863.56;4973969;28;45727;-58
2022/09/02 09:30:26;;;;;;;;;13.00;13.00;;;;;24.53;45.08;100861.97;4972782;28;45425;-55
2022/09/02 09:32:53;;;;;;;;;13.00;11.00;;;;;24.67;44.79;100859.03;4974602;28;45632;-62
2022/09/02 09:35:20;;;;;;;;;16.25;14.00;;;;;24.84;44.15;100854.50;4973876;28;46067;-59
2022/09/02 09:37:49;;;;;;;;;10.00;10.00;;;;;25.15;43.79;100861.47;4974049;28;45376;-56
2022/09/02 09:40:17;;;;;;;;;13.80;13.20;;;;;25.46;42.62;100849.31;4974241;28;45441;-52
2022/09/02 09:42:44;;;;;;;;;12.00;11.20;;;;;25.64;42.83;100842.81;4974126;28;45396;-45
2022/09/02 09:45:36;;;;;;;;;12.40;11.00;;;;;25.76;42.23;100831.88;4973975;28;45358;-51
2022/09/02 09:48:21;;;;;;;;;15.20;14.00;;;;;25.88;41.93;100836.22;4974317;28;45454;-51
2022/09/02 09:51:11;;;;;;;;;15.80;13.20;;;;;25.97;42.52;100835.81;4975219;28;45390;-62
2022/09/02 09:53:37;;;;;;;;;14.00;14.00;;;;;26.04;42.09;100822.84;4976215;28;45401;-53
2022/09/02 09:56:04;;;;;;;;;17.00;13.00;;;;;26.18;42.26;100837.00;4975317;28;45892;-62
2022/09/02 09:58:38;;;;;;;;;15.60;11.20;;;;;26.19;42.24;100844.09;4974965;28;45312;-59
2022/09/02 10:01:15;;;;;;;;;11.40;10.20;;;;;26.27;41.37;100836.31;4975771;28;45364;-61
2022/09/02 10:03:47;;;;;;;;;14.80;13.00;;;;;26.35;41.23;100826.91;4975695;28;45421;-62
2022/09/02 10:06:19;;;;;;;;;15.00;14.00;;;;;26.42;41.14;100824.84;4974909;28;45324;-60
2022/09/02 10:08:59;;;;;;;;;12.20;12.20;;;;;26.36;41.02;100834.00;4974948;28;45395;-54
2022/09/02 10:11:27;;;;;;;;;15.00;12.40;;;;;26.29;41.14;100831.44;4974939;28;44858;-47
2022/09/02 10:13:59;;;;;;;;;12.00;11.40;;;;;26.27;40.64;100825.41;4975333;28;45632;-49
2022/09/02 10:16:27;;;;;;;;;12.40;10.40;;;;;26.22;41.15;100817.16;4974671;28;46101;-55
2022/09/02 10:18:56;;;;;;;;;10.20;10.00;;;;;26.19;41.33;100814.91;4975116;28;45253;-63
2022/09/02 10:21:55;;;;;;;;;15.20;15.00;;;;;26.22;41.04;100821.78;4975057;28;45359;-60
2022/09/02 10:24:38;;;;;;;;;13.80;13.60;;;;;26.17;41.04;100822.53;4974967;28;45426;-58
2022/09/02 10:27:09;;;;;;;;;12.60;10.80;;;;;26.07;40.52;100806.81;4974463;28;46353;-51
2022/09/02 10:29:58;;;;;;;;;16.40;16.00;;;;;25.93;40.58;100813.69;4974443;28;45277;-50
2022/09/02 10:32:37;;;;;;;;;14.20;12.00;;;;;25.83;41.20;100818.94;4974542;28;45465;-61
2022/09/02 10:35:20;;;;;;;;;16.40;14.60;;;;;25.73;41.51;100824.19;4974886;28;45351;-48
2022/09/02 10:38:09;;;;;;;;;35.00;32.25;;;;;25.63;41.76;100817.50;4973892;28;46217;-49
2022/09/02 10:40:49;;;;;;;;;15.00;14.00;;;;;25.47;41.80;100812.81;4973591;28;45342;-56
2022/09/02 10:43:36;;;;;;;;;22.40;16.80;;;;;25.38;41.96;100819.72;4973222;28;45461;-60
2022/09/02 10:46:07;;;;;;;;;24.00;24.00;;;;;25.39;42.18;100810.50;4974518;28;45204;-60
2022/09/02 10:48:48;;;;;;;;;15.80;15.80;;;;;25.40;42.23;100806.69;4974744;28;47171;-58
2022/09/02 10:51:43;;;;;;;;;16.60;15.80;;;;;25.37;42.13;100807.19;4974578;28;45342;-61
2022/09/02 10:54:36;;;;;;;;;18.40;15.60;;;;;25.30;42.41;100806.50;4974430;28;45221;-49
2022/09/02 10:57:10;;;;;;;;;17.75;17.50;;;;;25.18;42.40;100803.00;4974424;28;45554;-49
2022/09/02 10:59:42;;;;;;;;;15.00;15.00;;;;;25.17;42.68;100804.88;4974189;28;45988;-47
2022/09/02 11:02:19;;;;;;;;;18.00;17.60;;;;;25.07;42.42;100797.31;4974047;28;45494;-51
2022/09/02 11:04:45;;;;;;;;;15.20;12.60;;;;;25.03;42.98;100804.31;4972875;28;45437;-46
2022/09/02 11:07:18;;;;;;;;;18.00;18.00;;;;;24.94;43.22;100804.91;4974021;28;45447;-46
2022/09/02 11:09:53;;;;;;;;;20.00;16.25;;;;;24.88;43.47;100804.81;4973548;28;46150;-46
2022/09/02 11:12:26;;;;;;;;;19.20;19.20;;;;;24.95;43.70;100796.53;4973068;28;45307;-44
2022/09/02 11:15:06;;;;;;;;;17.80;17.60;;;;;24.98;44.01;100785.13;4972798;28;45484;-49
2022/09/02 11:17:48;;;;;;;;;18.25;18.25;;;;;25.06;43.85;100786.66;4973065;28;45423;-45
2022/09/02 11:20:33;;;;;;;;;19.25;18.00;;;;;24.98;44.03;100790.59;4972342;28;47091;-46
2022/09/02 11:23:43;;;;;;;;;17.40;16.40;;;;;24.98;44.45;100790.59;4972599;28;45350;-50
2022/09/02 11:26:30;;;;;;;;;19.80;18.60;;;;;24.92;45.31;100786.13;4950585;28;45306;-57